Time;durP1;ratioP1;P1;durP2;ratioP2;P2;SDS_P1;SDS_P2;PMS_P1;PMS_P2;Temp;Humidity;BMP_temperature;BMP_pressure;BME280_temperature;BME280_humidity;BME280_pressure;Samples;Min_cycle;Max_cycle;Signal;HPM_P1;HPM_P2
2021/10/16 00:00:10;;;;;;;12.57;10.47;;;;;;;9.46;100.00;153789.53;5052742;28;20984;-79
2021/10/16 00:02:49;;;;;;;11.33;9.43;;;;;;;9.43;100.00;153780.47;5072080;28;20446;-80
2021/10/16 00:05:24;;;;;;;8.30;7.50;;;;;;;9.40;100.00;153774.00;5053154;28;20804;-80
2021/10/16 00:08:01;;;;;;;10.63;8.03;;;;;;;9.32;100.00;153753.31;5049982;28;20446;-80
2021/10/16 00:10:36;;;;;;;10.37;7.10;;;;;;;9.30;100.00;153748.13;5053722;28;20450;-79
2021/10/16 00:13:12;;;;;;;8.47;6.80;;;;;;;9.29;100.00;153745.59;5050000;28;20446;-79
2021/10/16 00:15:47;;;;;;;9.90;6.80;;;;;;;9.25;100.00;153733.91;5053520;28;20525;-80
2021/10/16 00:18:23;;;;;;;7.63;6.50;;;;;;;9.21;100.00;153723.59;5042347;28;20439;-80
2021/10/16 00:20:59;;;;;;;8.63;7.43;;;;;;;9.18;100.00;153717.13;5068994;28;20453;-80
2021/10/16 00:23:36;;;;;;;7.97;6.30;;;;;;;9.17;100.00;153714.50;5063206;28;20433;-79
2021/10/16 00:26:11;;;;;;;9.00;7.40;;;;;;;9.13;100.00;153705.44;5050456;28;20434;-80
2021/10/16 00:28:47;;;;;;;8.83;7.70;;;;;;;9.09;100.00;153693.81;5066530;28;20448;-79
2021/10/16 00:31:22;;;;;;;10.53;9.53;;;;;;;9.04;100.00;153682.19;5049747;28;20478;-80
2021/10/16 00:33:58;;;;;;;9.77;8.77;;;;;;;8.98;100.00;153665.34;5038850;28;20795;-79
2021/10/16 00:36:34;;;;;;;8.90;7.83;;;;;;;8.94;100.00;153655.03;5050327;28;20462;-80
2021/10/16 00:39:11;;;;;;;9.20;7.57;;;;;;;8.89;100.00;153642.13;5051731;28;20540;-80
2021/10/16 00:41:46;;;;;;;12.70;10.63;;;;;;;8.87;100.00;153636.94;5053298;28;20955;-80
2021/10/16 00:44:24;;;;;;;11.10;9.87;;;;;;;8.84;100.00;153629.19;5034963;28;20458;-79
2021/10/16 00:47:00;;;;;;;11.10;9.73;;;;;;;8.78;100.00;153614.97;5049676;28;20455;-80
2021/10/16 00:49:36;;;;;;;13.27;9.70;;;;;;;8.77;100.00;153611.06;5038520;28;20450;-80
2021/10/16 00:52:12;;;;;;;10.70;9.03;;;;;;;8.77;100.00;153611.06;5052960;28;20448;-80
2021/10/16 00:54:49;;;;;;;11.70;9.97;;;;;;;8.76;100.00;153608.50;5050292;28;20465;-80
2021/10/16 00:57:25;;;;;;;9.87;8.87;;;;;;;8.78;100.00;153613.66;5036969;28;20501;-80
2021/10/16 01:00:13;;;;;;;10.33;9.03;;;;;;;8.79;100.00;153616.25;5063140;28;20484;-79
2021/10/16 01:02:49;;;;;;;9.60;8.47;;;;;;;8.79;100.00;153617.50;5057645;28;20469;-80
2021/10/16 01:05:26;;;;;;;8.63;7.77;;;;;;;8.78;100.00;153614.97;5038693;28;20454;-79
2021/10/16 01:08:03;;;;;;;9.90;8.47;;;;;;;8.79;100.00;153616.25;5038677;28;20533;-80
2021/10/16 01:10:41;;;;;;;9.20;8.20;;;;;;;8.79;100.00;153617.50;5041747;28;20933;-79
2021/10/16 01:13:17;;;;;;;9.50;8.50;;;;;;;8.79;100.00;153616.25;5056456;28;20479;-79
2021/10/16 01:15:53;;;;;;;11.30;9.13;;;;;;;8.82;100.00;153623.97;5047843;28;20540;-80
2021/10/16 01:18:28;;;;;;;10.03;8.57;;;;;;;8.82;100.00;153625.28;5040617;28;20513;-80
2021/10/16 01:21:05;;;;;;;12.40;8.03;;;;;;;8.85;100.00;153631.75;5056425;28;20558;-80
2021/10/16 01:23:41;;;;;;;10.73;9.63;;;;;;;8.85;100.00;153631.75;5056657;28;20447;-79
2021/10/16 01:26:17;;;;;;;9.73;8.83;;;;;;;8.86;100.00;153634.34;5056599;28;20459;-79
2021/10/16 01:28:53;;;;;;;9.10;8.20;;;;;;;8.87;100.00;153636.94;5056420;28;20948;-80
2021/10/16 01:31:29;;;;;;;12.70;8.90;;;;;;;8.88;100.00;153639.50;5042194;28;20444;-80
2021/10/16 01:34:04;;;;;;;11.70;8.90;;;;;;;8.90;100.00;153644.66;5037909;28;20968;-80
2021/10/16 01:36:43;;;;;;;10.13;9.10;;;;;;;8.92;100.00;153649.88;5056515;28;20469;-80
2021/10/16 01:39:20;;;;;;;9.93;8.97;;;;;;;8.92;100.00;153651.13;5040790;28;20453;-80
2021/10/16 01:41:56;;;;;;;11.10;8.23;;;;;;;8.93;100.00;153652.44;5066473;28;20432;-79
2021/10/16 01:44:31;;;;;;;10.23;8.80;;;;;;;8.94;100.00;153655.03;5057538;28;20531;-80
2021/10/16 01:47:07;;;;;;;9.53;7.90;;;;;;;8.92;100.00;153649.88;5039331;28;20446;-80
2021/10/16 01:49:43;;;;;;;11.17;8.80;;;;;;;8.91;100.00;153647.28;5056486;28;20841;-80
2021/10/16 01:52:22;;;;;;;11.30;8.20;;;;;;;8.89;100.00;153642.13;5040550;28;20449;-79
2021/10/16 01:54:59;;;;;;;11.40;8.90;;;;;;;8.89;100.00;153642.13;5052775;28;20449;-80
2021/10/16 01:57:34;;;;;;;12.83;9.30;;;;;;;8.88;100.00;153639.50;5047263;28;20450;-79
2021/10/16 02:00:13;;;;;;;11.03;8.97;;;;;;;8.86;100.00;153635.66;5057208;28;20824;-79
2021/10/16 02:02:49;;;;;;;11.20;9.30;;;;;;;8.85;100.00;153631.75;5056167;28;20448;-79
2021/10/16 02:05:42;;;;;;;12.83;8.60;;;;;;;8.84;100.00;153629.19;5040649;28;20450;-80
2021/10/16 02:08:33;;;;;;;10.40;8.90;;;;;;;8.84;100.00;153630.44;5040650;28;20449;-79
2021/10/16 02:11:09;;;;;;;12.60;10.17;;;;;;;8.84;100.00;153630.44;5054808;28;20450;-79
2021/10/16 02:13:57;;;;;;;11.10;9.90;;;;;;;8.86;100.00;153634.34;5021134;28;20449;-80
2021/10/16 02:16:35;;;;;;;11.60;9.40;;;;;;;8.88;100.00;153639.50;5035293;28;20479;-79
2021/10/16 02:19:16;;;;;;;13.40;10.17;;;;;;;8.87;100.00;153638.22;5039673;28;20452;-80
2021/10/16 02:21:52;;;;;;;11.57;9.13;;;;;;;8.89;100.00;153642.13;5055684;28;20476;-79
2021/10/16 02:24:29;;;;;;;12.07;9.90;;;;;;;8.89;100.00;153642.13;5046400;28;20442;-80
2021/10/16 02:27:06;;;;;;;12.23;10.60;;;;;;;8.88;100.00;153640.81;5055127;28;20448;-80
2021/10/16 02:29:43;;;;;;;11.53;10.10;;;;;;;8.90;100.00;153644.66;5058965;28;20520;-80
2021/10/16 02:32:19;;;;;;;13.77;11.60;;;;;;;8.90;100.00;153644.66;5056536;28;20453;-80
2021/10/16 02:34:54;;;;;;;12.80;10.00;;;;;;;8.91;100.00;153648.56;5040362;28;20459;-79
2021/10/16 02:37:30;;;;;;;11.73;10.47;;;;;;;8.92;100.00;153649.88;5053136;28;20466;-80
2021/10/16 02:40:08;;;;;;;14.40;11.90;;;;;;;8.92;100.00;153649.88;5046005;28;20446;-80
2021/10/16 02:42:43;;;;;;;12.53;11.10;;;;;;;8.91;100.00;153648.56;5037256;28;20537;-80
2021/10/16 02:45:19;;;;;;;15.27;11.20;;;;;;;8.91;100.00;153647.28;5072066;28;22145;-79
2021/10/16 02:47:55;;;;;;;15.03;12.23;;;;;;;8.89;100.00;153643.41;5056870;28;20442;-79
2021/10/16 02:50:31;;;;;;;16.77;12.87;;;;;;;8.88;100.00;153639.50;5039823;28;20540;-79
2021/10/16 02:53:07;;;;;;;14.80;11.40;;;;;;;8.86;100.00;153635.66;5021164;28;20440;-79
2021/10/16 02:55:44;;;;;;;15.83;12.77;;;;;;;8.85;100.00;153631.75;5039168;28;20467;-79
2021/10/16 02:58:19;;;;;;;17.33;12.97;;;;;;;8.86;100.00;153634.34;5038899;28;20835;-79
2021/10/16 03:00:55;;;;;;;19.90;13.70;;;;;;;8.87;100.00;153636.94;5056653;28;20457;-79
2021/10/16 03:03:31;;;;;;;17.13;12.33;;;;;;;8.86;100.00;153635.66;5044743;28;20497;-79
2021/10/16 03:06:07;;;;;;;16.07;12.93;;;;;;;8.85;100.00;153631.75;5038827;28;20568;-79
2021/10/16 03:08:44;;;;;;;17.30;13.17;;;;;;;8.86;100.00;153634.34;5067142;28;20445;-79
2021/10/16 03:11:26;;;;;;;20.30;15.60;;;;;;;8.85;100.00;153633.03;5038898;28;20473;-79
2021/10/16 03:14:02;;;;;;;24.23;14.97;;;;;;;8.84;100.00;153629.19;5054411;28;20464;-79
2021/10/16 03:16:40;;;;;;;19.97;14.63;;;;;;;8.83;100.00;153626.59;5025627;28;20958;-79
2021/10/16 03:19:18;;;;;;;21.20;14.90;;;;;;;8.82;100.00;153623.97;5053047;28;21013;-79
2021/10/16 03:22:00;;;;;;;25.50;17.23;;;;;;;8.84;100.00;153629.19;5054886;28;20821;-79
2021/10/16 03:24:43;;;;;;;17.83;13.97;;;;;;;8.88;100.00;153640.81;5053997;28;20450;-80
2021/10/16 03:27:21;;;;;;;20.40;15.23;;;;;;;8.84;100.00;153629.19;5064621;28;20437;-79
2021/10/16 03:29:57;;;;;;;17.20;14.73;;;;;;;8.79;100.00;153616.25;5054211;28;20445;-79
2021/10/16 03:32:33;;;;;;;18.67;13.73;;;;;;;8.75;100.00;153607.19;5044537;28;20443;-79
2021/10/16 03:35:09;;;;;;;22.00;13.00;;;;;;;8.72;100.00;153598.13;5038380;28;20536;-79
2021/10/16 03:37:44;;;;;;;18.57;12.87;;;;;;;8.72;100.00;153599.44;5035599;28;20470;-79
2021/10/16 03:40:20;;;;;;;15.70;11.63;;;;;;;8.66;100.00;153582.66;5051359;28;20458;-79
2021/10/16 03:42:57;;;;;;;13.13;10.30;;;;;;;8.71;100.00;153595.56;5050855;28;20529;-79
2021/10/16 03:45:33;;;;;;;18.50;10.97;;;;;;;8.62;100.00;153572.28;5037256;28;20460;-79
2021/10/16 03:48:08;;;;;;;11.70;10.50;;;;;;;8.51;100.00;153546.44;5054870;28;20513;-79
2021/10/16 03:50:44;;;;;;;12.97;10.67;;;;;;;8.44;100.00;153528.34;5036071;28;20496;-79
2021/10/16 03:53:19;;;;;;;14.53;11.27;;;;;;;8.44;100.00;153528.34;5053506;28;20475;-79
2021/10/16 03:55:55;;;;;;;15.70;12.00;;;;;;;8.46;100.00;153532.22;5055634;28;20800;-79
2021/10/16 03:58:32;;;;;;;15.97;12.27;;;;;;;8.48;100.00;153538.69;5035494;28;20482;-79
2021/10/16 04:01:08;;;;;;;15.43;12.67;;;;;;;8.53;100.00;153551.59;5035917;28;20448;-79
2021/10/16 04:03:43;;;;;;;16.90;11.90;;;;;;;8.51;100.00;153545.13;5038426;28;20446;-79
2021/10/16 04:06:19;;;;;;;13.57;11.50;;;;;;;8.49;100.00;153541.28;5055235;28;20447;-79
2021/10/16 04:08:55;;;;;;;15.10;12.00;;;;;;;8.49;100.00;153541.28;5053796;28;20466;-79
2021/10/16 04:11:32;;;;;;;13.77;11.23;;;;;;;8.51;100.00;153546.44;5024023;28;20837;-79
2021/10/16 04:14:10;;;;;;;17.90;12.60;;;;;;;8.53;100.00;153550.28;5038253;28;20454;-79
2021/10/16 04:16:46;;;;;;;20.60;14.00;;;;;;;8.52;100.00;153549.00;5038197;28;20446;-80
2021/10/16 04:19:22;;;;;;;17.57;13.87;;;;;;;8.53;100.00;153551.59;5037805;28;20944;-80
2021/10/16 04:21:57;;;;;;;16.37;13.67;;;;;;;8.53;100.00;153551.59;5058558;28;20489;-81
2021/10/16 04:24:33;;;;;;;16.13;12.83;;;;;;;8.51;100.00;153545.13;5038172;28;20447;-80
2021/10/16 04:27:11;;;;;;;14.67;10.97;;;;;;;8.53;100.00;153550.28;5037286;28;20954;-80
2021/10/16 04:29:52;;;;;;;16.80;13.17;;;;;;;8.52;100.00;153547.75;5057296;28;20923;-80
2021/10/16 04:32:37;;;;;;;16.90;12.00;;;;;;;8.49;100.00;153541.28;5038842;28;20442;-80
2021/10/16 04:35:13;;;;;;;18.73;14.43;;;;;;;8.50;100.00;153542.53;5053035;28;20859;-80
2021/10/16 04:37:49;;;;;;;14.40;12.20;;;;;;;8.48;100.00;153538.69;5055313;28;20462;-80
2021/10/16 04:40:26;;;;;;;16.83;13.50;;;;;;;8.51;100.00;153545.13;5053387;28;20542;-79
2021/10/16 04:43:05;;;;;;;15.83;12.90;;;;;;;8.48;100.00;153538.69;5037506;28;20442;-80
2021/10/16 04:45:46;;;;;;;14.37;11.40;;;;;;;8.42;100.00;153523.16;5032538;28;20502;-80
2021/10/16 04:48:23;;;;;;;13.90;10.20;;;;;;;8.39;100.00;153514.13;5054883;28;20442;-81
2021/10/16 04:50:58;;;;;;;12.43;10.83;;;;;;;8.35;100.00;153505.06;5071988;28;20919;-80
2021/10/16 04:53:34;;;;;;;12.97;11.17;;;;;;;8.32;100.00;153497.31;5035802;28;20547;-80
2021/10/16 04:56:10;;;;;;;12.70;10.80;;;;;;;8.28;100.00;153487.00;5040216;28;20450;-80
2021/10/16 04:58:46;;;;;;;14.57;13.03;;;;;;;8.27;100.00;153484.41;5044446;28;20481;-80
2021/10/16 05:01:23;;;;;;;16.00;13.07;;;;;;;8.29;100.00;153489.56;5055040;28;20592;-80
2021/10/16 05:04:00;;;;;;;14.03;12.60;;;;;;;8.26;100.00;153481.75;5037316;28;20437;-80
2021/10/16 05:06:35;;;;;;;14.23;12.73;;;;;;;8.26;100.00;153481.75;5028434;28;20453;-80
2021/10/16 05:09:12;;;;;;;15.13;13.30;;;;;;;8.25;100.00;153477.88;5035577;28;20877;-80
2021/10/16 05:11:49;;;;;;;14.57;12.83;;;;;;;8.21;100.00;153468.81;5052794;28;20441;-80
2021/10/16 05:14:26;;;;;;;15.70;13.03;;;;;;;8.21;100.00;153468.81;5030516;28;20459;-80
2021/10/16 05:17:03;;;;;;;14.53;12.30;;;;;;;8.20;100.00;153466.28;5053176;28;20450;-80
2021/10/16 05:19:39;;;;;;;16.27;11.50;;;;;;;8.19;100.00;153463.66;5031364;28;20937;-80
2021/10/16 05:22:15;;;;;;;14.23;12.43;;;;;;;8.15;100.00;153453.34;5058414;28;20796;-80
2021/10/16 05:24:51;;;;;;;14.30;12.90;;;;;;;8.17;100.00;153458.50;5049803;28;20467;-80
2021/10/16 05:27:26;;;;;;;13.40;11.80;;;;;;;8.19;100.00;153463.66;5034566;28;20450;-80
2021/10/16 05:30:02;;;;;;;17.63;12.83;;;;;;;8.20;100.00;153466.28;5041747;28;20448;-81
2021/10/16 05:32:43;;;;;;;16.40;12.93;;;;;;;8.22;100.00;153470.13;5054309;28;20450;-80
2021/10/16 05:35:23;;;;;;;15.43;13.83;;;;;;;8.22;100.00;153471.44;5053499;28;20824;-80
2021/10/16 05:37:59;;;;;;;13.47;11.80;;;;;;;8.24;100.00;153476.59;5037628;28;20478;-81
2021/10/16 05:40:35;;;;;;;14.73;11.97;;;;;;;8.23;100.00;153472.72;5053135;28;20458;-80
2021/10/16 05:43:12;;;;;;;14.93;11.77;;;;;;;8.26;100.00;153481.75;5053413;28;20449;-80
2021/10/16 05:45:48;;;;;;;16.67;13.57;;;;;;;8.32;100.00;153496.00;5039802;28;20457;-80
2021/10/16 05:48:25;;;;;;;15.50;14.00;;;;;;;8.35;100.00;153503.78;5040663;28;20432;-81
2021/10/16 05:51:02;;;;;;;17.40;15.50;;;;;;;8.33;100.00;153499.91;5039882;28;20948;-80
2021/10/16 05:53:39;;;;;;;19.40;14.07;;;;;;;8.34;100.00;153501.22;5038944;28;20453;-80
2021/10/16 05:56:14;;;;;;;16.50;12.43;;;;;;;8.33;100.00;153498.63;5058147;28;20877;-80
2021/10/16 05:58:50;;;;;;;14.20;12.50;;;;;;;8.31;100.00;153494.72;5037039;28;20842;-79
2021/10/16 06:01:27;;;;;;;13.80;12.40;;;;;;;8.32;100.00;153497.31;5053746;28;20465;-79
2021/10/16 06:04:07;;;;;;;12.60;11.13;;;;;;;8.36;100.00;153506.38;5037302;28;20451;-79
2021/10/16 06:06:43;;;;;;;16.90;12.80;;;;;;;8.37;100.00;153508.94;5053130;28;20960;-79
2021/10/16 06:09:18;;;;;;;14.10;11.10;;;;;;;8.32;100.00;153497.31;5058692;28;20446;-80
2021/10/16 06:11:54;;;;;;;14.40;12.00;;;;;;;8.35;100.00;153505.06;5045713;28;20529;-80
2021/10/16 06:14:29;;;;;;;19.17;12.10;;;;;;;8.36;100.00;153506.38;5040468;28;20788;-79
2021/10/16 06:17:13;;;;;;;15.40;13.33;;;;;;;8.35;100.00;153505.06;5035557;28;20438;-79
2021/10/16 06:19:52;;;;;;;15.90;11.60;;;;;;;8.36;100.00;153507.69;5055631;28;20481;-79
2021/10/16 06:22:27;;;;;;;13.67;11.07;;;;;;;8.37;100.00;153510.22;5053488;28;20483;-79
2021/10/16 06:25:03;;;;;;;12.00;10.80;;;;;;;8.40;100.00;153518.00;5039362;28;20443;-80
2021/10/16 06:27:39;;;;;;;13.30;11.87;;;;;;;8.43;100.00;153525.75;5048347;28;20442;-80
2021/10/16 06:30:15;;;;;;;14.27;12.03;;;;;;;8.49;100.00;153539.97;5065282;28;20788;-80
2021/10/16 06:32:50;;;;;;;16.63;11.93;;;;;;;8.53;100.00;153551.59;5039757;28;20444;-80
2021/10/16 06:35:27;;;;;;;12.90;11.37;;;;;;;8.55;100.00;153556.75;5052864;28;20509;-80
2021/10/16 06:38:03;;;;;;;14.90;12.60;;;;;;;8.58;100.00;153563.22;5035200;28;20466;-80
2021/10/16 06:40:40;;;;;;;13.80;11.23;;;;;;;8.61;100.00;153569.69;5040245;28;20453;-80
2021/10/16 06:43:35;;;;;;;12.67;11.10;;;;;;;8.57;100.00;153560.66;5051947;28;20837;-80
2021/10/16 06:46:46;;;;;;;14.40;12.30;;;;;;;8.59;100.00;153565.81;5010068;28;20448;-80
2021/10/16 06:49:32;;;;;;;12.10;10.70;;;;;;;8.62;100.00;153572.28;5052166;28;20455;-79
2021/10/16 06:52:09;;;;;;;13.30;11.70;;;;;;;8.62;100.00;153572.28;5072815;28;20596;-79
2021/10/16 06:54:45;;;;;;;15.47;11.13;;;;;;;8.55;100.00;153555.50;5039843;28;20452;-80
2021/10/16 06:57:22;;;;;;;11.80;10.60;;;;;;;8.55;100.00;153556.75;5038193;28;20955;-79
2021/10/16 06:59:58;;;;;;;11.57;10.40;;;;;;;8.51;100.00;153545.13;5037274;28;20475;-80
2021/10/16 07:02:34;;;;;;;11.53;10.43;;;;;;;8.51;100.00;153546.44;5036726;28;20813;-79
2021/10/16 07:05:18;;;;;;;11.90;9.97;;;;;;;8.47;100.00;153534.81;5024804;28;20560;-81
2021/10/16 07:07:55;;;;;;;16.13;14.53;;;;;;;8.40;100.00;153516.69;5054653;28;20447;-80
2021/10/16 07:10:30;;;;;;;14.70;13.20;;;;;;;8.41;100.00;153520.59;5040306;28;20458;-80
2021/10/16 07:13:08;;;;;;;12.70;11.50;;;;;;;8.46;100.00;153533.53;5051915;28;20443;-79
2021/10/16 07:15:43;;;;;;;13.43;11.27;;;;;;;8.51;100.00;153546.44;5040454;28;21658;-80
2021/10/16 07:18:20;;;;;;;13.07;11.57;;;;;;;8.56;100.00;153558.06;5027665;28;20474;-80
2021/10/16 07:20:56;;;;;;;13.27;11.87;;;;;;;8.58;100.00;153564.53;5063034;28;20442;-79
2021/10/16 07:23:33;;;;;;;14.07;12.50;;;;;;;8.62;100.00;153572.28;5054617;28;20536;-80
2021/10/16 07:26:09;;;;;;;19.37;14.13;;;;;;;8.68;100.00;153587.81;5053950;28;20445;-79
2021/10/16 07:28:44;;;;;;;18.07;13.20;;;;;;;8.74;100.00;153603.28;5051481;28;20478;-80
2021/10/16 07:31:23;;;;;;;21.33;16.80;;;;;;;8.85;100.00;153631.75;5051536;28;20471;-79
2021/10/16 07:34:00;;;;;;;22.80;16.40;;;;;;;8.82;100.00;153623.97;5045716;28;20474;-79
2021/10/16 07:36:37;;;;;;;14.50;11.37;;;;;;;8.76;100.00;153609.81;5055559;28;20446;-79
2021/10/16 07:39:15;;;;;;;13.70;12.03;;;;;;;8.78;100.00;153613.66;5038120;28;20479;-79
2021/10/16 07:41:50;;;;;;;15.27;12.13;;;;;;;8.76;100.00;153609.81;5053216;28;20691;-79
2021/10/16 07:44:26;;;;;;;15.53;12.20;;;;;;;8.67;100.00;153586.50;5052925;28;20455;-79
2021/10/16 07:47:02;;;;;;;11.90;10.37;;;;;;;8.65;100.00;153581.34;5055726;28;20837;-79
2021/10/16 07:49:37;;;;;;;15.33;10.90;;;;;;;8.66;100.00;153582.66;5054996;28;20446;-80
2021/10/16 07:52:13;;;;;;;12.57;11.27;;;;;;;8.61;100.00;153569.69;5072480;28;20440;-79
2021/10/16 07:54:50;;;;;;;13.10;10.30;;;;;;;8.65;100.00;153581.34;5033358;28;20945;-80
2021/10/16 07:57:25;;;;;;;13.50;11.70;;;;;;;8.63;100.00;153576.13;5053197;28;20448;-79
2021/10/16 08:00:01;;;;;;;12.23;10.33;;;;;;;8.64;100.00;153577.44;5072151;28;20485;-79
2021/10/16 08:02:37;;;;;;;12.93;10.87;;;;;;;8.66;100.00;153582.66;5050978;28;20494;-79
2021/10/16 08:05:14;;;;;;;14.30;11.53;;;;;;;8.71;100.00;153596.81;5053293;28;20484;-79
2021/10/16 08:07:51;;;;;;;13.10;11.80;;;;;;;8.76;100.00;153609.81;5069651;28;20438;-79
2021/10/16 08:10:28;;;;;;;13.23;11.83;;;;;;;8.75;100.00;153605.91;5038961;28;20810;-79
2021/10/16 08:13:03;;;;;;;11.67;10.47;;;;;;;8.70;100.00;153592.97;5072043;28;20446;-80
2021/10/16 08:15:39;;;;;;;16.13;12.60;;;;;;;8.76;100.00;153608.50;5035034;28;20964;-79
2021/10/16 08:18:15;;;;;;;13.13;11.70;;;;;;;8.77;100.00;153612.34;5050610;28;20451;-79
2021/10/16 08:20:50;;;;;;;18.67;12.90;;;;;;;8.79;100.00;153616.25;5068986;28;20544;-79
2021/10/16 08:23:26;;;;;;;21.90;15.73;;;;;;;8.77;100.00;153611.06;5052884;28;20537;-79
2021/10/16 08:26:03;;;;;;;22.60;16.63;;;;;;;8.82;100.00;153623.97;5040719;28;20504;-79
2021/10/16 08:28:38;;;;;;;18.40;15.53;;;;;;;8.87;100.00;153636.94;5051359;28;20448;-79
2021/10/16 08:31:14;;;;;;;21.37;16.47;;;;;;;8.89;100.00;153642.13;5051433;28;20470;-80
2021/10/16 08:33:49;;;;;;;25.10;19.73;;;;;;;8.91;100.00;153647.28;5037103;28;20441;-79
2021/10/16 08:36:25;;;;;;;22.27;17.40;;;;;;;8.94;100.00;153655.03;5056474;28;20430;-79
2021/10/16 08:39:00;;;;;;;22.20;15.90;;;;;;;8.93;100.00;153652.44;5055257;28;20797;-79
2021/10/16 08:41:41;;;;;;;22.20;17.17;;;;;;;8.93;100.00;153653.72;5068365;28;20438;-79
2021/10/16 08:44:16;;;;;;;27.33;18.57;;;;;;;9.01;100.00;153673.13;5037304;28;20467;-79
2021/10/16 08:46:57;;;;;;;28.43;20.13;;;;;;;9.00;100.00;153671.81;5054114;28;20777;-80
2021/10/16 08:49:33;;;;;;;27.63;19.67;;;;;;;8.99;100.00;153667.97;5070345;28;20454;-79
2021/10/16 08:52:09;;;;;;;27.17;20.37;;;;;;;9.02;100.00;153675.72;5066903;28;20473;-80
2021/10/16 08:54:44;;;;;;;31.27;20.40;;;;;;;9.05;100.00;153683.50;5035404;28;20449;-81
2021/10/16 08:57:21;;;;;;;26.20;17.67;;;;;;;9.14;100.00;153706.75;5071903;28;20428;-80
2021/10/16 08:59:59;;;;;;;28.37;17.80;;;;;;;9.16;100.00;153713.22;5053235;28;20479;-79
2021/10/16 09:02:44;;;;;;;27.00;20.07;;;;;;;9.21;100.00;153723.59;5070258;28;20445;-81
2021/10/16 09:05:20;;;;;;;28.30;20.23;;;;;;;9.25;100.00;153735.22;5053722;28;20555;-80
2021/10/16 09:07:55;;;;;;;22.93;18.33;;;;;;;9.24;100.00;153732.59;5038617;28;20522;-79
2021/10/16 09:10:31;;;;;;;26.77;19.33;;;;;;;9.29;100.00;153745.59;5041039;28;20450;-79
2021/10/16 09:13:08;;;;;;;24.00;18.27;;;;;;;9.33;100.00;153755.91;5045867;28;20839;-79
2021/10/16 09:15:43;;;;;;;26.30;19.37;;;;;;;9.30;100.00;153746.84;5063665;28;20933;-79
2021/10/16 09:18:19;;;;;;;24.70;18.50;;;;;;;9.29;100.00;153745.59;5045702;28;20475;-79
2021/10/16 09:20:55;;;;;;;26.27;18.20;;;;;;;9.37;100.00;153766.22;5071649;28;20944;-79
2021/10/16 09:23:31;;;;;;;24.47;18.63;;;;;;;9.41;100.00;153775.31;5054956;28;20444;-79
2021/10/16 09:26:08;;;;;;;23.00;18.60;;;;;;;9.43;100.00;153781.75;5074784;28;20827;-80
2021/10/16 09:28:55;;;;;;;22.20;16.93;;;;;;;9.48;100.00;153794.69;5057053;28;20938;-79
2021/10/16 09:31:34;;;;;;;25.73;18.63;;;;;;;9.49;100.00;153797.31;5038509;28;20457;-79
2021/10/16 09:34:11;;;;;;;23.97;16.37;;;;;;;9.52;100.00;153805.06;5073244;28;20476;-80
2021/10/16 09:36:47;;;;;;;22.07;17.40;;;;;;;9.52;100.00;153805.06;5057226;28;20941;-79
2021/10/16 09:39:22;;;;;;;21.90;17.80;;;;;;;9.60;100.00;153824.47;5053270;28;20573;-80
2021/10/16 09:41:58;;;;;;;24.17;16.73;;;;;;;9.65;100.00;153838.72;5053158;28;20449;-79
2021/10/16 09:44:37;;;;;;;20.33;16.00;;;;;;;9.69;100.00;153849.03;5056658;28;20441;-81
2021/10/16 09:47:16;;;;;;;23.23;17.73;;;;;;;9.75;100.00;153863.28;5051991;28;20442;-80
2021/10/16 09:49:57;;;;;;;23.70;18.37;;;;;;;9.74;100.00;153860.72;5053993;28;20442;-81
2021/10/16 09:52:34;;;;;;;23.63;18.40;;;;;;;9.77;100.00;153869.75;5055848;28;20425;-80
2021/10/16 09:55:12;;;;;;;23.87;18.97;;;;;;;9.80;100.00;153877.50;5057220;28;20440;-80
2021/10/16 09:57:48;;;;;;;23.00;18.90;;;;;;;9.87;100.00;153893.06;5052815;28;20438;-80
2021/10/16 10:00:25;;;;;;;22.53;16.80;;;;;;;9.92;100.00;153906.00;5053460;28;20566;-80
2021/10/16 10:03:01;;;;;;;23.43;19.40;;;;;;;9.90;100.00;153900.81;5056863;28;20847;-80
2021/10/16 10:05:36;;;;;;;22.30;17.03;;;;;;;9.82;100.00;153882.69;5074837;28;20916;-80
2021/10/16 10:08:12;;;;;;;27.07;18.47;;;;;;;9.94;100.00;153911.16;5049957;28;20448;-80
2021/10/16 10:10:47;;;;;;;23.03;18.00;;;;;;;10.03;100.00;153934.47;5040374;28;20782;-80
2021/10/16 10:13:26;;;;;;;19.97;17.10;;;;;;;9.99;100.00;153924.09;5073774;28;20464;-80
2021/10/16 10:16:03;;;;;;;23.37;18.87;;;;;;;9.97;100.00;153918.91;5074635;28;20560;-80
2021/10/16 10:21:34;;;;;;;25.90;19.20;;;;;;;10.20;100.00;153978.50;5055393;28;20439;-80
2021/10/16 10:24:11;;;;;;;22.20;19.77;;;;;;;10.27;100.00;153996.66;5055551;28;20447;-81
2021/10/16 10:26:47;;;;;;;26.20;19.83;;;;;;;10.37;100.00;154022.53;5037807;28;20447;-81
2021/10/16 10:29:35;;;;;;;25.90;20.30;;;;;;;10.56;100.00;154071.75;5054326;28;20438;-81
2021/10/16 10:32:17;;;;;;;30.40;20.83;;;;;;;10.62;100.00;154087.25;5053954;28;20942;-81
2021/10/16 10:34:56;;;;;;;24.43;18.87;;;;;;;10.58;100.00;154076.91;5056105;28;20810;-81
2021/10/16 10:37:39;;;;;;;30.63;21.23;;;;;;;10.72;100.00;154113.13;5041659;28;20505;-81
2021/10/16 10:40:19;;;;;;;25.90;20.30;;;;;;;10.90;100.00;154158.50;5052743;28;20475;-81
2021/10/16 10:42:56;;;;;;;26.90;19.90;;;;;;;11.02;100.00;154190.84;5049867;28;20958;-81
2021/10/16 10:45:42;;;;;;;25.00;18.50;;;;;;;11.35;100.00;154273.78;5053067;28;20795;-81
2021/10/16 10:48:19;;;;;;;25.13;19.30;;;;;;;11.43;98.60;154295.81;5073975;28;20813;-81
2021/10/16 10:51:01;;;;;;;26.10;19.53;;;;;;;11.44;98.01;154298.38;5052523;28;20784;-81
2021/10/16 10:53:39;;;;;;;23.03;18.37;;;;;;;11.58;96.67;154334.66;5068108;28;20454;-81
2021/10/16 10:56:21;;;;;;;21.80;18.20;;;;;;;11.47;96.71;154306.16;5073570;28;20421;-81
2021/10/16 10:59:07;;;;;;;21.20;18.20;;;;;;;11.53;94.59;154320.41;5051766;28;20918;-81
2021/10/16 11:01:53;;;;;;;23.57;17.13;;;;;;;11.70;94.27;154364.53;5049501;28;20867;-81
2021/10/16 11:04:45;;;;;;;20.50;16.20;;;;;;;11.56;93.92;154329.50;5055879;28;20475;-81
2021/10/16 11:07:34;;;;;;;21.77;16.00;;;;;;;11.55;94.03;154326.88;5055635;28;20486;-81
2021/10/16 11:10:09;;;;;;;16.77;14.90;;;;;;;11.61;93.71;154342.44;5073254;28;20553;-81
2021/10/16 11:12:45;;;;;;;19.27;16.43;;;;;;;11.59;94.00;154337.28;5051751;28;20440;-81
2021/10/16 11:15:21;;;;;;;20.50;17.00;;;;;;;11.84;92.46;154399.50;5054681;28;20862;-81
2021/10/16 11:17:57;;;;;;;19.07;16.27;;;;;;;11.78;92.82;154385.22;5073314;28;20420;-81
2021/10/16 11:20:34;;;;;;;21.87;15.43;;;;;;;11.67;91.69;154355.41;5062326;28;20609;-82
2021/10/16 11:23:17;;;;;;;19.50;15.83;;;;;;;11.57;92.13;154332.06;5054312;28;20822;-81
2021/10/16 11:25:57;;;;;;;17.17;14.60;;;;;;;11.65;93.12;154351.50;5032219;28;20453;-82
2021/10/16 11:28:34;;;;;;;20.20;14.73;;;;;;;11.82;92.59;154395.63;5063098;28;20444;-81
2021/10/16 11:31:10;;;;;;;18.80;14.30;;;;;;;11.87;91.72;154408.56;5054969;28;20438;-81
2021/10/16 11:33:45;;;;;;;18.70;15.13;;;;;;;11.75;90.99;154377.50;5043415;28;20423;-81
2021/10/16 11:36:25;;;;;;;19.40;15.63;;;;;;;11.60;92.60;154339.84;5049867;28;20831;-81
2021/10/16 11:39:06;;;;;;;19.67;16.80;;;;;;;11.55;91.83;154325.59;5053020;28;20904;-81
2021/10/16 11:41:42;;;;;;;21.40;18.00;;;;;;;11.41;93.13;154289.34;5061880;28;20435;-81
2021/10/16 11:44:17;;;;;;;20.57;15.63;;;;;;;11.43;94.43;154295.81;5034429;28;20465;-81
2021/10/16 11:47:01;;;;;;;20.90;16.00;;;;;;;11.59;94.24;154335.97;5048717;28;20473;-81
2021/10/16 11:49:37;;;;;;;18.17;16.23;;;;;;;11.60;93.19;154338.53;5047683;28;20451;-81
2021/10/16 11:52:22;;;;;;;21.87;17.17;;;;;;;11.80;91.68;154390.44;5065062;28;20832;-81
2021/10/16 11:55:10;;;;;;;19.53;15.70;;;;;;;11.69;92.67;154360.63;5037121;28;20450;-81
2021/10/16 11:57:46;;;;;;;19.80;17.20;;;;;;;11.62;92.27;154343.75;5053697;28;20455;-80
2021/10/16 12:00:24;;;;;;;19.60;15.20;;;;;;;11.54;92.59;154323.03;5047215;28;20989;-80